Time;durP1;ratioP1;P1;durP2;ratioP2;P2;SDS_P1;SDS_P2;PMS_P1;PMS_P2;Temp;Humidity;BMP_temperature;BMP_pressure;BME280_temperature;BME280_humidity;BME280_pressure;Samples;Min_cycle;Max_cycle;Signal;HPM_P1;HPM_P2
2022/01/07 00:00:27;;;;;;;5.07;2.90;;;10.20;81.60;;;;;;5015553;28;20532;-77
2022/01/07 00:02:58;;;;;;;8.77;3.50;;;10.10;81.50;;;;;;5014204;28;20196;-77
2022/01/07 00:05:31;;;;;;;6.37;3.30;;;10.10;81.50;;;;;;5009663;28;20216;-77
2022/01/07 00:07:59;;;;;;;6.73;3.17;;;10.10;81.60;;;;;;5011797;28;20184;-76
2022/01/07 00:10:27;;;;;;;6.67;3.50;;;10.10;81.70;;;;;;5015170;28;20197;-76
2022/01/07 00:12:56;;;;;;;7.90;2.93;;;10.10;82.60;;;;;;5021359;28;20200;-76
2022/01/07 00:15:24;;;;;;;5.60;3.20;;;10.10;81.70;;;;;;5019949;28;20284;-77
2022/01/07 00:17:52;;;;;;;5.97;3.30;;;10.10;81.90;;;;;;5021430;28;20202;-77
2022/01/07 00:20:22;;;;;;;7.07;2.57;;;10.10;81.70;;;;;;5013591;28;20204;-76
2022/01/07 00:22:52;;;;;;;7.13;3.33;;;10.10;81.70;;;;;;5018683;28;20200;-76
2022/01/07 00:25:22;;;;;;;8.93;3.40;;;10.10;81.60;;;;;;5023751;28;20219;-77
2022/01/07 00:27:51;;;;;;;5.60;3.10;;;10.10;81.60;;;;;;5015499;28;20191;-76
2022/01/07 00:30:21;;;;;;;7.20;3.23;;;10.10;81.60;;;;;;5014117;28;20188;-76
2022/01/07 00:32:50;;;;;;;6.77;3.13;;;10.10;81.70;;;;;;5013419;28;20202;-77
2022/01/07 00:35:19;;;;;;;8.20;3.30;;;10.10;81.50;;;;;;5011274;28;20214;-76
2022/01/07 00:37:50;;;;;;;5.03;2.67;;;10.20;81.60;;;;;;5011322;28;20192;-76
2022/01/07 00:40:21;;;;;;;7.80;3.20;;;10.10;81.40;;;;;;5008987;28;20196;-77
2022/01/07 00:42:50;;;;;;;6.80;4.03;;;10.10;81.50;;;;;;5020575;28;20191;-77
2022/01/07 00:45:19;;;;;;;6.10;3.50;;;10.10;81.50;;;;;;5021053;28;20215;-77
2022/01/07 00:47:48;;;;;;;5.87;3.57;;;10.10;81.50;;;;;;5010608;28;20191;-76
2022/01/07 00:50:19;;;;;;;7.80;3.20;;;10.10;81.60;;;;;;5012825;28;20195;-76
2022/01/07 00:52:50;;;;;;;6.10;2.97;;;10.10;81.90;;;;;;5014101;28;20192;-77
2022/01/07 00:55:19;;;;;;;7.20;3.90;;;10.10;81.90;;;;;;5018183;28;20195;-77
2022/01/07 00:57:48;;;;;;;5.90;3.30;;;10.10;82.00;;;;;;5016696;28;20188;-77
2022/01/07 01:00:20;;;;;;;7.73;3.93;;;10.10;82.10;;;;;;5017685;28;20204;-76
2022/01/07 01:02:49;;;;;;;7.67;3.53;;;10.10;82.10;;;;;;5021459;28;20192;-77
2022/01/07 01:05:18;;;;;;;7.63;3.67;;;10.00;82.00;;;;;;5011406;28;20231;-76
2022/01/07 01:07:47;;;;;;;6.60;3.53;;;10.00;82.10;;;;;;5009667;28;20192;-77
2022/01/07 01:10:19;;;;;;;7.67;3.77;;;10.00;82.20;;;;;;5010805;28;20197;-76
2022/01/07 01:12:48;;;;;;;6.97;3.93;;;10.00;82.20;;;;;;5010499;28;20239;-76
2022/01/07 01:15:21;;;;;;;9.63;4.60;;;10.00;82.30;;;;;;5015836;28;20192;-76
2022/01/07 01:17:50;;;;;;;6.87;4.20;;;10.00;82.40;;;;;;5004557;28;20200;-77
2022/01/07 01:20:18;;;;;;;6.57;3.63;;;10.00;82.30;;;;;;5012628;28;20207;-76
2022/01/07 01:22:48;;;;;;;9.07;4.03;;;10.00;82.20;;;;;;5021831;28;20191;-77
2022/01/07 01:25:18;;;;;;;7.57;3.80;;;10.00;82.10;;;;;;5018936;28;20729;-76
2022/01/07 01:27:46;;;;;;;7.23;3.57;;;10.00;82.20;;;;;;5013655;28;20191;-76
2022/01/07 01:30:17;;;;;;;7.93;3.97;;;10.00;82.30;;;;;;5012856;28;20191;-76
2022/01/07 01:32:47;;;;;;;6.50;3.83;;;9.90;82.00;;;;;;5015659;28;20323;-76
2022/01/07 01:35:17;;;;;;;7.63;3.60;;;9.90;81.90;;;;;;5022335;28;20200;-77
2022/01/07 01:37:45;;;;;;;7.87;4.00;;;9.90;82.10;;;;;;5014108;28;20191;-77
2022/01/07 01:40:15;;;;;;;7.47;4.37;;;9.80;81.90;;;;;;5022847;28;20200;-77
2022/01/07 01:42:46;;;;;;;7.60;4.10;;;9.80;81.90;;;;;;5020557;28;20195;-77
2022/01/07 01:45:16;;;;;;;7.67;4.30;;;9.80;82.10;;;;;;5010244;28;20226;-77
2022/01/07 01:47:45;;;;;;;6.40;4.20;;;9.80;82.10;;;;;;5017840;28;20203;-76
2022/01/07 01:50:14;;;;;;;7.80;4.07;;;9.80;82.10;;;;;;5016853;28;20192;-76
2022/01/07 01:52:46;;;;;;;9.67;4.17;;;9.80;82.00;;;;;;5018371;28;20200;-77
2022/01/07 01:55:16;;;;;;;10.83;4.50;;;9.80;82.10;;;;;;5017119;28;20196;-76
2022/01/07 01:57:47;;;;;;;8.53;4.47;;;9.80;82.20;;;;;;5021614;28;20223;-76
2022/01/07 02:00:16;;;;;;;8.77;4.37;;;9.80;82.20;;;;;;5013393;28;20188;-76
2022/01/07 02:02:44;;;;;;;8.67;4.90;;;9.80;82.20;;;;;;5017291;28;20673;-77
2022/01/07 02:05:13;;;;;;;8.47;4.70;;;9.80;82.10;;;;;;5019068;28;20670;-77
2022/01/07 02:07:42;;;;;;;8.37;4.83;;;9.80;83.00;;;;;;5012009;28;20191;-75
2022/01/07 02:10:13;;;;;;;13.10;4.93;;;9.80;82.20;;;;;;5013339;28;20685;-76
2022/01/07 02:12:41;;;;;;;7.60;4.23;;;9.80;82.20;;;;;;5023950;28;20208;-77
2022/01/07 02:15:14;;;;;;;8.50;4.70;;;9.80;82.10;;;;;;5025975;28;20187;-76
2022/01/07 02:17:43;;;;;;;9.07;4.60;;;9.80;82.10;;;;;;5025334;28;20236;-77
2022/01/07 02:20:15;;;;;;;9.93;4.77;;;9.80;82.00;;;;;;5016332;28;20243;-76
2022/01/07 02:22:44;;;;;;;10.47;5.27;;;9.90;82.10;;;;;;5014729;28;20203;-76
2022/01/07 02:25:13;;;;;;;10.73;4.93;;;9.90;82.10;;;;;;5020103;28;20285;-77
2022/01/07 02:27:44;;;;;;;8.13;4.67;;;9.90;82.10;;;;;;5014822;28;20223;-76
2022/01/07 02:30:15;;;;;;;8.80;5.00;;;9.90;82.10;;;;;;5015410;28;20195;-76
2022/01/07 02:32:43;;;;;;;10.50;4.90;;;9.90;81.90;;;;;;5010972;28;20208;-77
2022/01/07 02:35:14;;;;;;;8.40;4.70;;;9.90;81.90;;;;;;5019534;28;20794;-76
2022/01/07 02:37:59;;;;;;;7.97;5.03;;;9.90;81.90;;;;;;5068188;27;20689;-76
2022/01/07 02:40:28;;;;;;;9.20;5.23;;;10.00;82.00;;;;;;5062309;28;20194;-77
2022/01/07 02:42:56;;;;;;;10.50;4.93;;;9.90;81.80;;;;;;5059845;28;20198;-77
2022/01/07 02:45:25;;;;;;;9.83;4.93;;;10.00;81.90;;;;;;5060698;28;20190;-76
2022/01/07 02:47:54;;;;;;;7.93;5.13;;;10.00;81.60;;;;;;5068935;28;20201;-77
2022/01/07 02:50:26;;;;;;;8.10;4.67;;;10.00;81.60;;;;;;5062661;28;20635;-76
2022/01/07 02:52:55;;;;;;;10.43;4.83;;;9.90;81.50;;;;;;5068314;28;20182;-76
2022/01/07 02:55:26;;;;;;;11.37;5.03;;;9.90;81.50;;;;;;5063512;28;20198;-76
2022/01/07 02:57:54;;;;;;;8.60;4.97;;;9.90;81.40;;;;;;5067149;28;20561;-77
2022/01/07 03:00:24;;;;;;;12.17;5.20;;;9.90;81.40;;;;;;5063461;28;20790;-77
2022/01/07 03:02:53;;;;;;;10.30;5.20;;;9.90;81.40;;;;;;5074327;28;20193;-76
2022/01/07 03:05:22;;;;;;;9.37;5.50;;;9.90;81.30;;;;;;5065258;28;20196;-76
2022/01/07 03:07:51;;;;;;;12.50;6.17;;;9.90;81.30;;;;;;5065233;28;20190;-76
2022/01/07 03:10:25;;;;;;;8.80;5.23;;;9.90;81.40;;;;;;5062851;28;20202;-76
2022/01/07 03:12:56;;;;;;;10.00;5.80;;;9.90;81.60;;;;;;5063987;28;20186;-76
2022/01/07 03:15:24;;;;;;;10.63;5.20;;;9.80;81.40;;;;;;5072606;28;20182;-76
2022/01/07 03:17:53;;;;;;;9.80;5.93;;;9.80;81.50;;;;;;5058028;28;20268;-76
2022/01/07 03:20:22;;;;;;;9.80;5.37;;;9.80;81.60;;;;;;5060714;28;20231;-76
2022/01/07 03:22:51;;;;;;;10.07;5.43;;;9.80;81.60;;;;;;5061088;28;20205;-76
2022/01/07 03:25:20;;;;;;;9.33;5.63;;;9.80;81.60;;;;;;5061963;28;20221;-76
2022/01/07 03:27:48;;;;;;;13.83;6.43;;;9.80;81.70;;;;;;5069021;28;20190;-76
2022/01/07 03:30:19;;;;;;;10.77;5.40;;;9.80;81.70;;;;;;5061606;28;20183;-76
2022/01/07 03:32:48;;;;;;;9.07;5.63;;;9.70;81.50;;;;;;5065078;28;20187;-76
2022/01/07 03:35:17;;;;;;;11.30;6.10;;;9.70;81.50;;;;;;5066613;28;20197;-76
2022/01/07 03:37:48;;;;;;;10.60;5.87;;;9.70;81.50;;;;;;5068850;28;20232;-76
2022/01/07 03:40:19;;;;;;;10.90;5.90;;;9.70;81.60;;;;;;5064594;28;20662;-76
2022/01/07 03:42:48;;;;;;;11.40;6.40;;;9.60;81.60;;;;;;5062894;28;20199;-76
2022/01/07 03:45:19;;;;;;;8.27;5.17;;;9.60;81.60;;;;;;5065875;28;20234;-76
2022/01/07 03:47:49;;;;;;;11.00;5.47;;;9.60;81.80;;;;;;5062806;28;20193;-76
2022/01/07 03:50:19;;;;;;;11.87;6.20;;;9.60;81.90;;;;;;5055043;28;20198;-76
2022/01/07 03:52:49;;;;;;;12.30;5.97;;;9.60;81.90;;;;;;5047524;28;20187;-76
2022/01/07 03:55:21;;;;;;;12.63;5.87;;;9.60;81.90;;;;;;5055062;28;20199;-76
2022/01/07 03:57:49;;;;;;;12.50;6.30;;;9.60;82.00;;;;;;5057690;28;20218;-76
2022/01/07 04:00:21;;;;;;;9.27;5.50;;;9.60;82.00;;;;;;5047228;28;20195;-77
2022/01/07 04:02:50;;;;;;;9.23;5.87;;;9.60;81.90;;;;;;5054114;28;20190;-77
2022/01/07 04:05:22;;;;;;;11.10;6.07;;;9.60;81.90;;;;;;5060610;28;20191;-76
2022/01/07 04:07:51;;;;;;;10.87;5.87;;;9.60;82.00;;;;;;5044897;28;20180;-76
2022/01/07 04:10:19;;;;;;;11.50;6.47;;;9.60;82.10;;;;;;5049843;28;20198;-77
2022/01/07 04:12:48;;;;;;;11.90;5.47;;;9.70;82.10;;;;;;5047860;28;20194;-76
2022/01/07 04:15:18;;;;;;;9.60;5.80;;;9.70;82.10;;;;;;5059140;28;20236;-76
2022/01/07 04:17:48;;;;;;;9.70;5.43;;;9.70;82.10;;;;;;5050465;28;21430;-76
2022/01/07 04:20:18;;;;;;;10.97;6.27;;;9.80;82.10;;;;;;5046775;28;20195;-76
2022/01/07 04:22:47;;;;;;;12.07;5.70;;;9.80;82.10;;;;;;5044571;28;20685;-76
2022/01/07 04:25:18;;;;;;;8.93;5.60;;;9.80;82.10;;;;;;5054897;28;20197;-76
2022/01/07 04:27:47;;;;;;;12.60;5.63;;;9.80;82.10;;;;;;5062570;28;20213;-76
2022/01/07 04:30:16;;;;;;;13.50;6.00;;;9.80;82.00;;;;;;5052781;28;20194;-76
2022/01/07 04:32:46;;;;;;;11.60;7.07;;;9.90;82.00;;;;;;5054737;28;20449;-76
2022/01/07 04:35:16;;;;;;;10.13;6.00;;;9.90;82.20;;;;;;5046506;28;20292;-76
2022/01/07 04:37:45;;;;;;;12.23;5.83;;;10.00;82.30;;;;;;5056599;28;20234;-76
2022/01/07 04:40:16;;;;;;;12.40;5.93;;;10.00;82.20;;;;;;5047773;28;20222;-76
2022/01/07 04:42:44;;;;;;;12.10;5.73;;;10.00;82.00;;;;;;5049763;28;20204;-76
2022/01/07 04:45:13;;;;;;;8.50;5.53;;;10.10;81.90;;;;;;5044609;28;20195;-76
2022/01/07 04:47:42;;;;;;;9.83;5.57;;;10.10;81.80;;;;;;5048209;28;20199;-76
2022/01/07 04:50:14;;;;;;;10.27;6.03;;;10.10;81.60;;;;;;5050252;28;20207;-76
2022/01/07 04:52:44;;;;;;;9.97;5.67;;;10.10;81.50;;;;;;5043152;28;20599;-76
2022/01/07 04:55:15;;;;;;;11.27;5.83;;;10.10;81.50;;;;;;5049372;28;20192;-76
2022/01/07 04:57:43;;;;;;;8.87;5.50;;;10.10;81.40;;;;;;5051359;28;20859;-77
2022/01/07 05:00:13;;;;;;;15.77;7.03;;;10.20;81.40;;;;;;5050058;28;20195;-76
2022/01/07 05:02:41;;;;;;;12.50;6.88;;;10.10;81.30;;;;;;5048854;28;20452;-76
2022/01/07 05:05:12;;;;;;;9.67;6.17;;;10.20;81.40;;;;;;5049031;28;20675;-77
2022/01/07 05:07:40;;;;;;;9.77;5.60;;;10.20;81.30;;;;;;5047414;28;20198;-76
2022/01/07 05:10:11;;;;;;;11.40;5.90;;;10.20;81.20;;;;;;5044834;28;20191;-76
2022/01/07 05:12:40;;;;;;;10.47;5.40;;;10.20;81.10;;;;;;5042846;28;20223;-77
2022/01/07 05:15:09;;;;;;;10.10;6.20;;;10.20;81.00;;;;;;5041975;28;21705;-76
2022/01/07 05:17:38;;;;;;;11.07;5.67;;;10.20;81.00;;;;;;5041386;28;20223;-76
2022/01/07 05:20:07;;;;;;;12.13;6.33;;;10.20;81.00;;;;;;5040968;28;20213;-77
2022/01/07 05:22:37;;;;;;;9.87;5.30;;;10.20;81.00;;;;;;5045615;28;20183;-76
2022/01/07 05:25:07;;;;;;;10.93;6.00;;;10.20;80.90;;;;;;5042155;28;20199;-76
2022/01/07 05:27:35;;;;;;;10.30;6.20;;;10.20;81.00;;;;;;5043800;28;20187;-77
2022/01/07 05:30:04;;;;;;;10.97;6.10;;;10.20;81.00;;;;;;5047207;28;20192;-76
2022/01/07 05:32:32;;;;;;;12.10;5.67;;;10.20;80.80;;;;;;5041260;28;20451;-77
2022/01/07 05:35:01;;;;;;;12.43;6.83;;;10.10;80.80;;;;;;5040263;28;20194;-76
2022/01/07 05:37:29;;;;;;;12.90;6.80;;;10.10;80.80;;;;;;5039754;28;20229;-77
2022/01/07 05:39:59;;;;;;;12.77;6.40;;;10.10;80.80;;;;;;5043936;28;20191;-77
2022/01/07 05:42:28;;;;;;;10.10;5.87;;;10.00;80.80;;;;;;5046094;28;20835;-76
2022/01/07 05:44:57;;;;;;;11.53;6.10;;;10.10;80.80;;;;;;5040573;28;20206;-76
2022/01/07 05:47:25;;;;;;;13.47;6.67;;;10.10;80.80;;;;;;5057819;28;20194;-76
2022/01/07 05:49:53;;;;;;;11.27;5.70;;;10.10;80.90;;;;;;5062196;28;20244;-76
2022/01/07 05:52:22;;;;;;;11.27;6.33;;;10.10;80.80;;;;;;5058770;28;20548;-76
2022/01/07 05:54:50;;;;;;;12.30;6.50;;;10.00;80.80;;;;;;5049771;28;20207;-76
2022/01/07 05:57:20;;;;;;;10.07;5.47;;;10.00;80.70;;;;;;5062863;28;20190;-77
2022/01/07 05:59:48;;;;;;;12.00;6.70;;;10.00;80.70;;;;;;5049638;28;20622;-77
2022/01/07 06:02:17;;;;;;;13.87;6.30;;;10.00;80.70;;;;;;5041540;28;20198;-77
2022/01/07 06:04:48;;;;;;;13.80;6.13;;;10.00;80.60;;;;;;5053607;28;20835;-77
2022/01/07 06:07:17;;;;;;;12.87;6.57;;;10.00;80.80;;;;;;5043456;28;20187;-76
2022/01/07 06:09:45;;;;;;;11.70;6.77;;;10.00;80.80;;;;;;5041716;28;20199;-76
2022/01/07 06:12:13;;;;;;;11.13;5.93;;;10.00;80.90;;;;;;5042424;28;20195;-76
2022/01/07 06:14:43;;;;;;;11.67;7.10;;;10.00;80.90;;;;;;5042203;28;20197;-76
2022/01/07 06:17:12;;;;;;;13.27;6.37;;;10.00;80.90;;;;;;5055100;28;20206;-76
2022/01/07 06:19:40;;;;;;;15.27;6.67;;;10.00;81.00;;;;;;5046793;28;20249;-76
2022/01/07 06:22:10;;;;;;;11.27;6.83;;;9.90;80.90;;;;;;5058747;28;20191;-77
2022/01/07 06:24:39;;;;;;;12.13;6.10;;;10.00;81.90;;;;;;5059368;28;20194;-77
2022/01/07 06:27:07;;;;;;;10.03;6.13;;;10.00;81.20;;;;;;5064057;28;20198;-77
2022/01/07 06:29:37;;;;;;;13.10;7.57;;;10.00;81.30;;;;;;5044612;28;20184;-77
2022/01/07 06:32:09;;;;;;;15.37;7.43;;;10.00;81.40;;;;;;5046452;28;20204;-76
2022/01/07 06:34:37;;;;;;;15.63;7.23;;;10.00;81.40;;;;;;5048572;28;20198;-76
2022/01/07 06:37:06;;;;;;;15.23;7.50;;;10.00;81.40;;;;;;5063982;28;20233;-76
2022/01/07 06:39:35;;;;;;;16.77;7.03;;;10.10;81.50;;;;;;5058514;28;20695;-76
2022/01/07 06:42:04;;;;;;;14.00;8.03;;;10.10;81.40;;;;;;5061060;28;20498;-77
2022/01/07 06:44:33;;;;;;;12.60;7.07;;;10.20;81.40;;;;;;5052900;28;20202;-76
2022/01/07 06:47:01;;;;;;;11.57;6.57;;;10.20;81.40;;;;;;5047479;28;20549;-76
2022/01/07 06:49:31;;;;;;;13.37;6.90;;;10.20;82.20;;;;;;5054006;28;20199;-76
2022/01/07 06:51:59;;;;;;;17.03;7.67;;;10.30;81.40;;;;;;5062742;28;20187;-77
2022/01/07 06:54:28;;;;;;;17.97;7.80;;;10.30;81.30;;;;;;5049876;28;20198;-77
2022/01/07 06:56:56;;;;;;;23.87;8.13;;;10.40;81.40;;;;;;5057869;28;20664;-77
2022/01/07 06:59:25;;;;;;;13.77;7.60;;;10.40;81.40;;;;;;5047477;28;20211;-77
2022/01/07 07:01:53;;;;;;;16.33;7.57;;;10.50;81.40;;;;;;5046761;28;20195;-77
2022/01/07 07:04:23;;;;;;;19.37;8.27;;;10.50;81.40;;;;;;5047437;28;20278;-77
2022/01/07 07:06:53;;;;;;;18.77;8.20;;;10.50;81.40;;;;;;5034794;28;20192;-76
2022/01/07 07:09:21;;;;;;;15.73;8.10;;;10.50;81.30;;;;;;5048899;28;20195;-77
2022/01/07 07:11:49;;;;;;;17.70;8.03;;;10.50;81.30;;;;;;5054831;28;20211;-77
2022/01/07 07:14:18;;;;;;;17.93;8.70;;;10.60;81.30;;;;;;5064433;28;20649;-77
2022/01/07 07:16:46;;;;;;;17.83;9.33;;;10.60;81.30;;;;;;5059572;28;20946;-77
2022/01/07 07:19:14;;;;;;;12.70;7.87;;;10.60;81.60;;;;;;5052619;28;20806;-77
2022/01/07 07:21:43;;;;;;;16.83;8.00;;;10.70;81.50;;;;;;5044639;28;20669;-78
2022/01/07 07:24:12;;;;;;;19.07;8.80;;;10.70;81.40;;;;;;5048009;28;20190;-78
2022/01/07 07:26:41;;;;;;;20.93;8.70;;;10.70;81.30;;;;;;5047018;28;20179;-78
2022/01/07 07:29:09;;;;;;;16.50;8.30;;;10.70;81.20;;;;;;5049866;28;20315;-78
2022/01/07 07:31:41;;;;;;;19.90;9.40;;;10.80;81.30;;;;;;5047808;28;20191;-78
2022/01/07 07:36:51;;;;;;;20.47;9.27;;;10.80;81.10;;;;;;5024131;28;20219;-77
2022/01/07 07:39:21;;;;;;;23.05;10.55;;;10.90;81.10;;;;;;5045236;28;20441;-77
2022/01/07 07:41:49;;;;;;;21.73;8.63;;;10.90;81.40;;;;;;5055901;28;20206;-76
2022/01/07 07:44:18;;;;;;;20.83;9.50;;;10.90;81.40;;;;;;5066523;28;20195;-77
2022/01/07 07:46:46;;;;;;;26.67;9.83;;;11.00;81.30;;;;;;5048452;28;20195;-77
2022/01/07 07:49:15;;;;;;;19.27;9.47;;;11.00;81.10;;;;;;5046774;28;20191;-77
2022/01/07 07:51:43;;;;;;;26.13;10.73;;;11.00;80.90;;;;;;5046873;28;20195;-78
2022/01/07 07:54:12;;;;;;;21.23;9.37;;;11.10;80.90;;;;;;5048238;28;20547;-77
2022/01/07 07:56:41;;;;;;;17.07;9.40;;;11.10;80.90;;;;;;5049192;28;20191;-77
2022/01/07 07:59:10;;;;;;;19.33;9.70;;;11.20;80.80;;;;;;5046385;28;20219;-76
2022/01/07 08:01:38;;;;;;;19.60;10.17;;;11.20;80.60;;;;;;5050468;28;20825;-78
2022/01/07 08:04:07;;;;;;;27.57;10.60;;;11.20;80.60;;;;;;5048459;28;20294;-77
2022/01/07 08:06:35;;;;;;;17.43;10.00;;;11.20;80.60;;;;;;5046980;28;20186;-77
2022/01/07 08:09:04;;;;;;;18.67;10.23;;;11.20;80.80;;;;;;5044286;28;20595;-78
2022/01/07 08:11:47;;;;;;;19.87;10.53;;;11.20;80.90;;;;;;5046688;28;20199;-77
2022/01/07 08:17:06;;;;;;;18.03;10.30;;;11.20;80.80;;;;;;5052824;28;20194;-77
2022/01/07 08:19:35;;;;;;;26.47;11.27;;;11.20;80.90;;;;;;5057065;28;20222;-77
2022/01/07 08:22:05;;;;;;;24.03;11.70;;;11.20;81.30;;;;;;5057047;28;20187;-77
2022/01/07 08:24:34;;;;;;;29.33;11.03;;;11.20;81.20;;;;;;5058243;28;20186;-77
2022/01/07 08:27:02;;;;;;;23.77;12.40;;;11.10;80.90;;;;;;5056133;28;20460;-77
2022/01/07 08:29:52;;;;;;;20.40;10.33;;;11.10;81.60;;;;;;5043831;28;20247;-77
2022/01/07 08:35:07;;;;;;;27.30;11.27;;;11.10;81.50;;;;;;5053428;28;20190;-77
2022/01/07 08:37:35;;;;;;;24.13;12.25;;;11.10;81.50;;;;;;5046112;28;20839;-78
2022/01/07 08:40:04;;;;;;;21.70;11.37;;;11.10;81.60;;;;;;5052387;28;20773;-78
2022/01/07 08:42:33;;;;;;;21.30;11.37;;;11.10;81.70;;;;;;5053181;28;20205;-78
2022/01/07 08:45:04;;;;;;;23.83;12.50;;;11.10;81.70;;;;;;5048273;28;20710;-78
2022/01/07 08:47:32;;;;;;;20.13;11.20;;;11.00;81.80;;;;;;5043941;28;20195;-79
2022/01/07 08:50:01;;;;;;;25.60;12.40;;;11.10;81.70;;;;;;5045474;28;20203;-78
2022/01/07 08:52:29;;;;;;;22.63;12.30;;;11.00;81.80;;;;;;5046068;28;20731;-78
2022/01/07 08:54:57;;;;;;;20.03;10.80;;;11.00;81.60;;;;;;5050392;28;20210;-78
2022/01/07 08:57:26;;;;;;;20.17;10.07;;;11.00;81.70;;;;;;5045245;28;20191;-79
2022/01/07 08:59:54;;;;;;;18.07;10.50;;;11.00;81.80;;;;;;5053471;28;20866;-78
2022/01/07 09:02:24;;;;;;;18.67;9.87;;;11.00;81.60;;;;;;5049593;28;20191;-78
2022/01/07 09:04:53;;;;;;;18.13;10.73;;;11.00;81.60;;;;;;5061104;28;20195;-78
2022/01/07 09:07:21;;;;;;;20.03;10.80;;;11.00;81.50;;;;;;5062633;28;20187;-78
2022/01/07 09:09:49;;;;;;;21.53;11.83;;;11.00;81.50;;;;;;5048937;28;20195;-77
2022/01/07 09:12:17;;;;;;;17.47;10.77;;;11.00;81.60;;;;;;5046591;28;20202;-78
2022/01/07 09:14:46;;;;;;;19.97;10.57;;;10.90;81.60;;;;;;5042430;28;20220;-77
2022/01/07 09:17:14;;;;;;;19.07;10.47;;;10.90;81.60;;;;;;5061274;28;20369;-76
2022/01/07 09:19:45;;;;;;;12.43;7.07;;;10.90;81.80;;;;;;5048226;28;20692;-77
2022/01/07 09:22:13;;;;;;;8.33;5.20;;;10.90;81.50;;;;;;5052257;28;20680;-76
2022/01/07 09:24:41;;;;;;;8.10;4.97;;;10.80;80.80;;;;;;5048448;28;20191;-75
2022/01/07 09:27:09;;;;;;;7.60;4.90;;;10.80;80.60;;;;;;5065352;28;20198;-76
2022/01/07 09:29:38;;;;;;;7.20;4.50;;;10.70;80.20;;;;;;5062019;28;20186;-76
2022/01/07 09:32:07;;;;;;;9.23;5.40;;;10.70;80.10;;;;;;5046103;28;20191;-79
2022/01/07 09:34:36;;;;;;;7.50;4.90;;;10.60;79.70;;;;;;5038168;28;20199;-76
2022/01/07 09:37:07;;;;;;;8.20;4.13;;;10.60;79.50;;;;;;5044635;28;20288;-76
2022/01/07 09:39:36;;;;;;;9.63;4.10;;;10.50;78.30;;;;;;5043274;28;20215;-75
2022/01/07 09:42:06;;;;;;;6.37;3.90;;;10.40;76.90;;;;;;5046734;28;20250;-76
2022/01/07 09:44:37;;;;;;;6.87;4.10;;;10.30;76.10;;;;;;5045626;28;20245;-78
2022/01/07 09:47:06;;;;;;;6.37;3.50;;;10.20;76.40;;;;;;5054704;28;20197;-75
2022/01/07 09:49:35;;;;;;;7.87;3.80;;;10.20;76.10;;;;;;5057535;28;20193;-76
2022/01/07 09:52:07;;;;;;;6.93;3.53;;;10.10;76.00;;;;;;5041581;28;20195;-74
2022/01/07 09:54:38;;;;;;;7.90;3.90;;;10.00;76.40;;;;;;5034827;28;20191;-76
2022/01/07 09:57:08;;;;;;;6.77;3.37;;;10.00;76.70;;;;;;5039210;28;20198;-76
2022/01/07 09:59:38;;;;;;;7.97;4.00;;;9.90;76.60;;;;;;5045073;28;20183;-76
2022/01/07 10:02:08;;;;;;;6.03;4.10;;;9.80;76.80;;;;;;5049700;28;20641;-76
2022/01/07 10:04:38;;;;;;;6.20;3.70;;;9.70;76.90;;;;;;5040149;28;20275;-76
2022/01/07 10:07:17;;;;;;;6.13;4.00;;;9.60;77.20;;;;;;5042672;28;20233;-76
2022/01/07 10:10:00;;;;;;;6.90;3.40;;;9.60;77.30;;;;;;5058724;28;20305;-75
2022/01/07 10:12:30;;;;;;;7.93;4.50;;;9.50;77.40;;;;;;5046660;28;20632;-77
2022/01/07 10:15:13;;;;;;;6.57;4.10;;;9.50;77.60;;;;;;5047267;28;20194;-78
2022/01/07 10:17:54;;;;;;;7.20;4.00;;;9.40;77.70;;;;;;5048946;28;20194;-76
2022/01/07 10:20:25;;;;;;;6.50;4.00;;;9.20;77.70;;;;;;5052905;28;20214;-76
2022/01/07 10:22:57;;;;;;;9.10;4.77;;;9.20;78.00;;;;;;5049795;28;20193;-75
2022/01/07 10:25:28;;;;;;;10.37;4.07;;;9.20;78.10;;;;;;5046628;28;20203;-78
2022/01/07 10:28:02;;;;;;;7.77;4.50;;;9.20;78.30;;;;;;5045362;28;20788;-76
2022/01/07 10:30:38;;;;;;;11.80;4.77;;;9.10;78.20;;;;;;5042485;28;20198;-77
2022/01/07 10:33:21;;;;;;;7.93;4.43;;;9.10;78.50;;;;;;5042467;28;20194;-77
2022/01/07 10:35:52;;;;;;;7.50;4.47;;;9.10;78.60;;;;;;5053219;28;20219;-78
2022/01/07 10:38:23;;;;;;;11.13;4.77;;;9.00;78.30;;;;;;5042717;28;20199;-77
2022/01/07 10:40:53;;;;;;;9.73;4.73;;;9.00;78.40;;;;;;5043484;28;20199;-79
2022/01/07 10:43:24;;;;;;;8.73;4.70;;;8.90;78.30;;;;;;5050569;28;20194;-77
2022/01/07 10:45:59;;;;;;;5.80;3.80;;;8.90;78.20;;;;;;5044942;28;20191;-76
2022/01/07 10:48:38;;;;;;;8.30;4.30;;;8.90;78.30;;;;;;5047205;28;21426;-76
2022/01/07 10:51:08;;;;;;;8.23;4.63;;;8.90;78.40;;;;;;5040592;28;20186;-76
2022/01/07 10:53:38;;;;;;;8.73;4.80;;;8.90;78.70;;;;;;5053081;28;20711;-78
2022/01/07 10:56:10;;;;;;;6.90;4.37;;;8.80;78.70;;;;;;5040526;28;20247;-78
2022/01/07 10:59:00;;;;;;;8.97;4.70;;;8.80;78.80;;;;;;5044638;28;20201;-78
2022/01/07 11:01:33;;;;;;;10.63;4.27;;;8.80;78.80;;;;;;5046983;28;20221;-78
2022/01/07 11:04:03;;;;;;;9.20;4.33;;;8.80;79.10;;;;;;5045959;28;20197;-77
2022/01/07 11:06:32;;;;;;;8.50;4.87;;;8.70;78.50;;;;;;5046675;28;20193;-77
2022/01/07 11:11:46;;;;;;;8.43;4.60;;;8.70;78.40;;;;;;5268202;23;20257;-74
2022/01/07 11:14:19;;;;;;;7.73;4.13;;;8.80;78.30;;;;;;5006996;28;20867;-75
2022/01/07 11:16:48;;;;;;;7.33;4.23;;;8.80;78.20;;;;;;5005440;28;20189;-75
2022/01/07 11:19:20;;;;;;;6.47;3.70;;;8.80;77.70;;;;;;5004824;28;20191;-74
2022/01/07 11:21:52;;;;;;;8.40;3.70;;;8.80;76.80;;;;;;5004283;28;20224;-74
2022/01/07 11:24:43;;;;;;;6.40;3.00;;;8.70;76.30;;;;;;5005581;28;20189;-74
2022/01/07 11:27:15;;;;;;;8.93;3.93;;;8.70;75.70;;;;;;5002084;28;20275;-74
2022/01/07 11:29:54;;;;;;;6.27;3.60;;;8.80;75.70;;;;;;5005926;28;20198;-76
2022/01/07 11:32:44;;;;;;;6.50;3.07;;;8.70;75.60;;;;;;5002681;28;20194;-75
2022/01/07 11:35:47;;;;;;;5.70;3.27;;;8.70;75.30;;;;;;4986555;28;20233;-76
2022/01/07 11:38:31;;;;;;;6.63;3.27;;;8.70;74.20;;;;;;5002441;28;20203;-80
2022/01/07 11:41:00;;;;;;;7.13;3.57;;;8.70;73.90;;;;;;4994328;28;20214;-76
2022/01/07 11:43:37;;;;;;;6.03;3.53;;;8.70;72.90;;;;;;5005118;28;20201;-75
2022/01/07 11:46:24;;;;;;;6.97;3.93;;;8.80;73.10;;;;;;5002037;28;20259;-75
2022/01/07 11:48:54;;;;;;;8.17;3.80;;;8.80;72.90;;;;;;5002993;28;20333;-75
2022/01/07 11:51:22;;;;;;;8.77;3.70;;;8.80;72.30;;;;;;5002630;28;20564;-75
2022/01/07 11:54:05;;;;;;;8.37;3.73;;;8.70;72.30;;;;;;4995642;28;20223;-75
2022/01/07 11:56:35;;;;;;;9.67;4.00;;;8.70;71.90;;;;;;5006206;28;20184;-75
2022/01/07 11:59:25;;;;;;;8.43;3.67;;;8.70;71.10;;;;;;5004112;28;20232;-76
2022/01/07 12:02:05;;;;;;;7.13;3.50;;;8.70;71.20;;;;;;5004175;28;20207;-76
2022/01/07 12:04:35;;;;;;;7.97;3.70;;;8.70;71.20;;;;;;5006104;28;20191;-76
2022/01/07 12:07:05;;;;;;;6.93;3.33;;;8.60;70.10;;;;;;5004386;28;20193;-76
2022/01/07 12:09:39;;;;;;;7.03;3.30;;;8.70;70.80;;;;;;5003598;28;20200;-75
2022/01/07 12:12:11;;;;;;;4.63;2.93;;;8.70;70.60;;;;;;5005187;28;20769;-75
2022/01/07 12:14:45;;;;;;;4.17;2.53;;;8.60;69.60;;;;;;5001565;28;20190;-75
2022/01/07 12:17:17;;;;;;;5.87;3.27;;;8.60;70.30;;;;;;5004036;28;20180;-75
2022/01/07 12:20:18;;;;;;;7.30;3.40;;;8.60;70.00;;;;;;4999209;28;20657;-75
2022/01/07 12:22:52;;;;;;;6.80;3.10;;;8.60;68.60;;;;;;5004512;28;20758;-74
2022/01/07 12:25:22;;;;;;;5.53;2.70;;;8.60;68.50;;;;;;5001483;28;20192;-76
2022/01/07 12:28:01;;;;;;;3.77;2.20;;;8.60;68.00;;;;;;5005174;28;20644;-76
2022/01/07 12:30:31;;;;;;;4.57;2.60;;;8.60;68.00;;;;;;5000010;28;20675;-75
2022/01/07 12:33:07;;;;;;;5.63;2.90;;;8.60;68.10;;;;;;5003727;28;20266;-75
2022/01/07 12:35:35;;;;;;;7.03;2.90;;;8.60;68.10;;;;;;5005235;28;20794;-75
2022/01/07 12:38:15;;;;;;;4.83;1.93;;;8.60;67.80;;;;;;5004636;28;20615;-75
2022/01/07 12:40:55;;;;;;;4.70;2.23;;;8.60;68.20;;;;;;5001194;28;20195;-75
2022/01/07 12:43:30;;;;;;;7.40;2.60;;;8.60;67.30;;;;;;4990006;28;20814;-75
2022/01/07 12:46:02;;;;;;;6.20;2.53;;;8.50;67.20;;;;;;5004199;28;20549;-74
2022/01/07 12:48:38;;;;;;;7.53;2.90;;;8.50;66.30;;;;;;5003708;28;20204;-74
2022/01/07 12:51:08;;;;;;;5.97;2.77;;;8.50;66.70;;;;;;5003806;28;20729;-75
2022/01/07 12:53:37;;;;;;;5.63;2.70;;;8.40;66.50;;;;;;5003388;28;20188;-74
2022/01/07 12:56:26;;;;;;;6.17;2.87;;;8.40;66.70;;;;;;5003475;28;20670;-75
2022/01/07 12:58:55;;;;;;;7.60;3.17;;;8.40;66.60;;;;;;5001513;28;20251;-75
2022/01/07 13:01:26;;;;;;;9.33;3.33;;;8.40;65.80;;;;;;4999363;28;20242;-74
2022/01/07 13:04:03;;;;;;;4.57;2.60;;;8.40;66.90;;;;;;5000862;28;20177;-75
2022/01/07 13:06:32;;;;;;;10.53;3.83;;;8.40;67.20;;;;;;4997889;28;20201;-74
2022/01/07 13:09:00;;;;;;;6.83;3.37;;;8.50;67.60;;;;;;5004503;28;20595;-74
2022/01/07 13:11:29;;;;;;;6.33;3.33;;;8.50;67.70;;;;;;5001334;28;20226;-75
2022/01/07 13:14:06;;;;;;;6.63;3.60;;;8.50;68.00;;;;;;5002583;28;20214;-74